createdAt,value
2019-03-23T00:00:43.662Z,784.00
2019-03-23T00:01:43.670Z,786.00
2019-03-23T00:02:43.866Z,786.00
2019-03-23T00:03:44.208Z,785.00
2019-03-23T00:04:45.180Z,784.00
2019-03-23T00:05:45.196Z,783.00
2019-03-23T00:05:53.749Z,783.00
2019-03-23T00:06:55.208Z,783.00
2019-03-23T00:07:56.088Z,783.00
2019-03-23T00:08:57.079Z,783.00
2019-03-23T00:09:58.814Z,783.00
2019-03-23T00:10:57.593Z,783.00
2019-03-23T00:11:58.868Z,783.00
2019-03-23T00:12:58.919Z,783.00
2019-03-23T00:13:59.085Z,783.00
2019-03-23T00:14:59.963Z,783.00
2019-03-23T00:16:00.904Z,783.00
2019-03-23T00:17:01.268Z,783.00
2019-03-23T00:18:02.194Z,783.00
2019-03-23T00:19:03.011Z,783.00
2019-03-23T00:20:03.853Z,783.00
2019-03-23T00:21:04.330Z,783.00
2019-03-23T00:22:05.314Z,783.00
2019-03-23T00:23:05.576Z,783.00
2019-03-23T00:24:06.309Z,783.00
2019-03-23T00:25:07.207Z,783.00
2019-03-23T00:26:07.987Z,783.00
2019-03-23T00:27:08.062Z,784.00
2019-03-23T00:28:08.746Z,784.00
2019-03-23T00:29:09.599Z,783.00
2019-03-23T00:30:09.982Z,783.00
2019-03-23T00:31:10.972Z,782.00
2019-03-23T00:32:11.046Z,783.00
2019-03-23T00:33:11.181Z,783.00
2019-03-23T00:34:11.984Z,783.00
2019-03-23T00:35:12.120Z,783.00
2019-03-23T00:36:12.230Z,783.00
2019-03-23T00:37:12.344Z,783.00
2019-03-23T00:38:13.805Z,783.00
2019-03-23T00:39:13.919Z,784.00
2019-03-23T00:40:14.501Z,784.00
2019-03-23T00:41:15.333Z,785.00
2019-03-23T00:42:16.200Z,784.00
2019-03-23T00:43:16.657Z,783.00
2019-03-23T00:44:17.527Z,782.00
2019-03-23T00:45:16.737Z,783.00
2019-03-23T00:46:17.801Z,783.00
2019-03-23T00:47:18.634Z,783.00
2019-03-23T00:48:18.469Z,783.00
2019-03-23T00:49:20.238Z,783.00
2019-03-23T00:50:21.057Z,783.00
2019-03-23T00:50:29.668Z,783.00
2019-03-23T00:51:30.463Z,783.00
2019-03-23T00:52:32.387Z,783.00
2019-03-23T00:53:33.204Z,783.00
2019-03-23T00:54:33.238Z,784.00
2019-03-23T00:55:34.035Z,784.00
2019-03-23T00:56:34.788Z,783.00
2019-03-23T00:57:35.550Z,783.00
2019-03-23T00:58:36.415Z,784.00
2019-03-23T00:59:36.442Z,785.00
2019-03-23T01:00:37.208Z,784.00
2019-03-23T01:01:38.022Z,785.00
2019-03-23T01:02:37.749Z,784.00
2019-03-23T01:03:39.586Z,784.00
2019-03-23T01:04:40.500Z,784.00
2019-03-23T01:05:40.644Z,784.00
2019-03-23T01:06:51.598Z,785.00
2019-03-23T01:07:41.397Z,786.00
2019-03-23T01:08:43.283Z,786.00
2019-03-23T01:09:44.235Z,785.00
2019-03-23T01:10:44.896Z,785.00
2019-03-23T01:11:45.687Z,785.00
2019-03-23T01:12:46.578Z,784.00
2019-03-23T01:13:47.359Z,785.00
2019-03-23T01:14:48.223Z,785.00
2019-03-23T01:15:49.042Z,784.00
2019-03-23T01:16:49.199Z,784.00
2019-03-23T01:17:49.200Z,785.00
2019-03-23T01:18:49.313Z,785.00
2019-03-23T01:19:49.438Z,785.00
2019-03-23T01:20:50.117Z,784.00
2019-03-23T01:21:49.440Z,785.00
2019-03-23T01:22:50.860Z,784.00
2019-03-23T01:23:51.787Z,784.00
2019-03-23T01:24:52.081Z,784.00
2019-03-23T01:25:52.304Z,784.00
2019-03-23T01:26:53.253Z,784.00
2019-03-23T01:27:53.390Z,784.00
2019-03-23T01:28:54.278Z,784.00
2019-03-23T01:29:55.132Z,784.00
2019-03-23T01:30:56.105Z,784.00
2019-03-23T01:31:56.967Z,784.00
2019-03-23T01:32:56.983Z,785.00
2019-03-23T01:33:57.942Z,784.00
2019-03-23T01:34:58.317Z,785.00
2019-03-23T01:35:06.886Z,784.00
2019-03-23T01:36:08.095Z,783.00
2019-03-23T01:37:08.431Z,785.00
2019-03-23T01:38:09.376Z,785.00
2019-03-23T01:39:10.306Z,786.00
2019-03-23T01:40:11.217Z,784.00
2019-03-23T01:41:11.365Z,785.00
2019-03-23T01:42:12.073Z,784.00
2019-03-23T01:43:12.990Z,785.00
2019-03-23T01:44:13.927Z,785.00
2019-03-23T01:45:15.062Z,786.00
2019-03-23T01:46:14.048Z,786.00
2019-03-23T01:47:14.064Z,785.00
2019-03-23T01:48:14.970Z,785.00
2019-03-23T01:49:15.486Z,785.00
2019-03-23T01:50:16.144Z,785.00
2019-03-23T01:51:16.217Z,785.00
2019-03-23T01:52:16.315Z,785.00
2019-03-23T01:53:16.029Z,786.00
2019-03-23T01:54:17.875Z,785.00
2019-03-23T01:55:18.822Z,786.00
2019-03-23T01:56:19.774Z,786.00
2019-03-23T01:57:20.526Z,786.00
2019-03-23T01:58:21.414Z,786.00
2019-03-23T01:59:22.270Z,787.00
2019-03-23T02:00:23.201Z,786.00
2019-03-23T02:01:24.155Z,785.00
2019-03-23T02:02:25.020Z,785.00
2019-03-23T02:03:25.793Z,785.00
2019-03-23T02:04:26.781Z,785.00
2019-03-23T02:05:26.757Z,786.00
2019-03-23T02:06:27.079Z,785.00
2019-03-23T02:07:27.127Z,786.00
2019-03-23T02:08:27.221Z,785.00
2019-03-23T02:09:28.016Z,785.00
2019-03-23T02:10:28.995Z,785.00
2019-03-23T02:11:28.985Z,785.00
2019-03-23T02:12:29.943Z,786.00
2019-03-23T02:13:30.888Z,786.00
2019-03-23T02:14:31.795Z,785.00
2019-03-23T02:15:31.970Z,785.00
2019-03-23T02:16:33.246Z,786.00
2019-03-23T02:17:32.459Z,786.00
2019-03-23T02:18:33.394Z,785.00
2019-03-23T02:19:33.431Z,785.00
2019-03-23T02:19:41.959Z,785.00
2019-03-23T02:20:43.013Z,785.00
2019-03-23T02:21:43.036Z,785.00
2019-03-23T02:22:44.004Z,786.00
2019-03-23T02:23:44.085Z,786.00
2019-03-23T02:24:45.066Z,786.00
2019-03-23T02:25:45.291Z,786.00
2019-03-23T02:26:46.166Z,786.00
2019-03-23T02:27:47.012Z,786.00
2019-03-23T02:28:47.031Z,787.00
2019-03-23T02:29:48.063Z,788.00
2019-03-23T02:30:47.152Z,788.00
2019-03-23T02:31:47.236Z,788.00
2019-03-23T02:32:48.109Z,792.00
2019-03-23T02:33:49.000Z,793.00
2019-03-23T02:34:49.414Z,794.00
2019-03-23T02:35:50.212Z,793.00
2019-03-23T02:36:50.347Z,793.00
2019-03-23T02:37:51.193Z,792.00
2019-03-23T02:38:51.333Z,790.00
2019-03-23T02:39:51.477Z,792.00
2019-03-23T02:40:52.318Z,792.00
2019-03-23T02:41:52.653Z,788.00
2019-03-23T02:42:53.621Z,788.00
2019-03-23T02:43:54.517Z,790.00
2019-03-23T02:44:54.690Z,788.00
2019-03-23T02:45:55.613Z,788.00
2019-03-23T02:46:56.035Z,788.00
2019-03-23T02:47:56.200Z,787.00
2019-03-23T02:48:57.067Z,787.00
2019-03-23T02:49:57.444Z,788.00
2019-03-23T02:50:57.736Z,787.00
2019-03-23T02:51:57.835Z,787.00
2019-03-23T02:52:58.297Z,788.00
2019-03-23T02:53:58.484Z,787.00
2019-03-23T02:54:58.507Z,787.00
2019-03-23T02:55:59.036Z,787.00
2019-03-23T02:56:59.154Z,786.00
2019-03-23T02:58:00.080Z,786.00
2019-03-23T02:59:00.998Z,787.00
2019-03-23T03:00:01.019Z,788.00
2019-03-23T03:01:01.870Z,786.00
2019-03-23T03:02:02.850Z,787.00
2019-03-23T03:02:11.378Z,787.00
2019-03-23T03:03:12.625Z,787.00
2019-03-23T03:04:12.773Z,787.00
2019-03-23T03:05:12.792Z,786.00
2019-03-23T03:06:13.732Z,786.00
2019-03-23T03:07:13.773Z,786.00
2019-03-23T03:08:13.869Z,786.00
2019-03-23T03:09:14.013Z,788.00
2019-03-23T03:10:14.110Z,788.00
2019-03-23T03:11:14.273Z,788.00
2019-03-23T03:12:14.544Z,789.00
2019-03-23T03:13:15.385Z,787.00
2019-03-23T03:14:15.823Z,787.00
2019-03-23T03:15:15.973Z,786.00
2019-03-23T03:16:16.956Z,787.00
2019-03-23T03:17:17.231Z,787.00
2019-03-23T03:18:17.325Z,787.00
2019-03-23T03:19:17.450Z,787.00
2019-03-23T03:20:17.751Z,787.00
2019-03-23T03:21:17.918Z,787.00
2019-03-23T03:22:18.007Z,787.00
2019-03-23T03:23:18.187Z,787.00
2019-03-23T03:24:18.313Z,786.00
2019-03-23T03:25:18.670Z,787.00
2019-03-23T03:26:18.726Z,786.00
2019-03-23T03:27:19.007Z,787.00
2019-03-23T03:28:19.014Z,786.00
2019-03-23T03:29:19.960Z,786.00
2019-03-23T03:30:20.127Z,786.00
2019-03-23T03:31:20.954Z,787.00
2019-03-23T03:32:21.005Z,787.00
2019-03-23T03:33:21.304Z,788.00
2019-03-23T03:34:20.674Z,787.00
2019-03-23T03:35:22.576Z,787.00
2019-03-23T03:36:23.503Z,787.00
2019-03-23T03:37:24.410Z,787.00
2019-03-23T03:38:25.169Z,790.00
2019-03-23T03:39:26.023Z,792.00
2019-03-23T03:40:26.866Z,792.00
2019-03-23T03:41:27.826Z,792.00
2019-03-23T03:42:28.720Z,792.00
2019-03-23T03:43:29.622Z,792.00
2019-03-23T03:44:30.687Z,793.00
2019-03-23T03:45:30.454Z,793.00
2019-03-23T03:45:39.013Z,792.00
2019-03-23T03:46:40.028Z,792.00
2019-03-23T03:47:41.435Z,792.00
2019-03-23T03:48:39.439Z,793.00
2019-03-23T03:49:41.237Z,792.00
2019-03-23T03:50:42.129Z,788.00
2019-03-23T03:51:42.995Z,788.00
2019-03-23T03:52:43.818Z,788.00
2019-03-23T03:53:44.633Z,787.00
2019-03-23T03:54:45.466Z,788.00
2019-03-23T03:55:45.165Z,792.00
2019-03-23T03:56:47.099Z,788.00
2019-03-23T03:57:46.999Z,788.00
2019-03-23T03:58:48.961Z,787.00
2019-03-23T03:59:49.839Z,787.00
2019-03-23T04:00:50.090Z,787.00
2019-03-23T04:01:50.140Z,787.00
2019-03-23T04:02:50.120Z,787.00
2019-03-23T04:03:50.949Z,788.00
2019-03-23T04:04:51.811Z,788.00
2019-03-23T04:05:52.757Z,787.00
2019-03-23T04:06:52.690Z,788.00
2019-03-23T04:07:54.597Z,787.00
2019-03-23T04:08:55.399Z,788.00
2019-03-23T04:09:56.172Z,787.00
2019-03-23T04:10:56.970Z,788.00
2019-03-23T04:11:57.920Z,788.00
2019-03-23T04:12:58.654Z,788.00
2019-03-23T04:13:59.400Z,788.00
2019-03-23T04:15:00.373Z,788.00
2019-03-23T04:16:00.200Z,788.00
2019-03-23T04:17:02.189Z,792.00
2019-03-23T04:18:02.928Z,792.00
2019-03-23T04:19:03.648Z,792.00
2019-03-23T04:20:04.021Z,789.00
2019-03-23T04:21:04.936Z,788.00
2019-03-23T04:22:05.757Z,792.00
2019-03-23T04:23:06.175Z,789.00
2019-03-23T04:24:06.245Z,788.00
2019-03-23T04:25:07.043Z,790.00
2019-03-23T04:26:07.097Z,788.00
2019-03-23T04:27:07.908Z,788.00
2019-03-23T04:28:08.831Z,787.00
2019-03-23T04:29:09.670Z,788.00
2019-03-23T04:30:10.601Z,787.00
2019-03-23T04:31:10.481Z,787.00
2019-03-23T04:32:11.423Z,787.00
2019-03-23T04:33:12.552Z,787.00
2019-03-23T04:34:13.390Z,787.00
2019-03-23T04:35:13.229Z,787.00
2019-03-23T04:36:15.090Z,787.00
2019-03-23T04:36:24.115Z,787.00
2019-03-23T04:37:25.855Z,787.00
2019-03-23T04:38:26.679Z,788.00
2019-03-23T04:39:27.615Z,788.00
2019-03-23T04:40:28.466Z,789.00
2019-03-23T04:41:28.483Z,792.00
2019-03-23T04:42:28.632Z,793.00
2019-03-23T04:43:28.669Z,792.00
2019-03-23T04:44:28.713Z,792.00
2019-03-23T04:45:28.983Z,790.00
2019-03-23T04:46:29.943Z,789.00
2019-03-23T04:47:29.980Z,787.00
2019-03-23T04:48:29.998Z,792.00
2019-03-23T04:49:29.841Z,792.00
2019-03-23T04:50:31.631Z,789.00
2019-03-23T04:51:32.537Z,788.00
2019-03-23T04:52:33.432Z,788.00
2019-03-23T04:53:34.407Z,788.00
2019-03-23T04:54:35.379Z,788.00
2019-03-23T04:55:36.349Z,790.00
2019-03-23T04:56:37.210Z,788.00
2019-03-23T04:57:38.186Z,788.00
2019-03-23T04:58:39.181Z,788.00
2019-03-23T04:59:39.020Z,788.00
2019-03-23T05:00:40.768Z,788.00
2019-03-23T05:01:40.766Z,788.00
2019-03-23T05:02:41.582Z,788.00
2019-03-23T05:03:41.631Z,788.00
2019-03-23T05:04:41.607Z,790.00
2019-03-23T05:05:42.457Z,793.00
2019-03-23T05:06:42.743Z,793.00
2019-03-23T05:07:41.816Z,793.00
2019-03-23T05:08:41.844Z,793.00
2019-03-23T05:09:42.920Z,793.00
2019-03-23T05:10:43.814Z,792.00
2019-03-23T05:11:44.701Z,792.00
2019-03-23T05:12:45.654Z,792.00
2019-03-23T05:13:46.143Z,793.00
2019-03-23T05:14:47.075Z,793.00
2019-03-23T05:15:47.117Z,793.00
2019-03-23T05:16:48.042Z,793.00
2019-03-23T05:17:48.940Z,793.00
2019-03-23T05:18:49.782Z,793.00
2019-03-23T05:19:49.876Z,792.00
2019-03-23T05:19:58.436Z,792.00
2019-03-23T05:20:59.464Z,792.00
2019-03-23T05:22:00.333Z,790.00
2019-03-23T05:23:01.176Z,792.00
2019-03-23T05:24:02.017Z,788.00
2019-03-23T05:25:02.265Z,788.00
2019-03-23T05:26:02.256Z,793.00
2019-03-23T05:27:03.199Z,792.00
2019-03-23T05:28:03.914Z,792.00
2019-03-23T05:29:04.799Z,793.00
2019-03-23T05:30:05.691Z,793.00
2019-03-23T05:31:07.167Z,792.00
2019-03-23T05:32:06.563Z,792.00
2019-03-23T05:33:08.423Z,790.00
2019-03-23T05:34:09.419Z,792.00
2019-03-23T05:35:10.432Z,792.00
2019-03-23T05:36:09.594Z,792.00
2019-03-23T05:37:10.855Z,792.00
2019-03-23T05:38:11.020Z,792.00
2019-03-23T05:39:11.321Z,788.00
2019-03-23T05:40:11.401Z,788.00
2019-03-23T05:41:11.553Z,790.00
2019-03-23T05:42:11.895Z,788.00
2019-03-23T05:43:11.897Z,788.00
2019-03-23T05:44:12.106Z,788.00
2019-03-23T05:45:12.177Z,788.00
2019-03-23T05:46:12.258Z,788.00
2019-03-23T05:47:13.138Z,788.00
2019-03-23T05:48:13.955Z,792.00
2019-03-23T05:49:14.733Z,792.00
2019-03-23T05:50:15.622Z,792.00
2019-03-23T05:51:16.496Z,792.00
2019-03-23T05:52:17.419Z,788.00
2019-03-23T05:53:17.563Z,793.00
2019-03-23T05:54:17.601Z,793.00
2019-03-23T05:55:18.502Z,793.00
2019-03-23T05:56:18.544Z,794.00
2019-03-23T05:57:19.937Z,793.00
2019-03-23T05:58:19.237Z,793.00
2019-03-23T05:59:21.004Z,793.00
2019-03-23T06:00:21.016Z,792.00
2019-03-23T06:01:21.115Z,792.00
2019-03-23T06:02:21.326Z,790.00
2019-03-23T06:03:22.085Z,793.00
2019-03-23T06:04:22.896Z,793.00
2019-03-23T06:04:31.428Z,793.00
2019-03-23T06:05:32.520Z,793.00
2019-03-23T06:06:33.547Z,792.00
2019-03-23T06:07:33.720Z,792.00
2019-03-23T06:08:34.566Z,792.00
2019-03-23T06:09:35.320Z,793.00
2019-03-23T06:10:36.176Z,794.00
2019-03-23T06:11:36.345Z,795.00
2019-03-23T06:12:36.469Z,795.00
2019-03-23T06:13:37.409Z,795.00
2019-03-23T06:14:38.231Z,794.00
2019-03-23T06:15:39.054Z,795.00
2019-03-23T06:16:39.935Z,794.00
2019-03-23T06:17:40.831Z,794.00
2019-03-23T06:18:41.764Z,794.00
2019-03-23T06:19:42.702Z,793.00
2019-03-23T06:20:42.887Z,792.00
2019-03-23T06:21:43.867Z,792.00
2019-03-23T06:22:44.610Z,788.00
2019-03-23T06:23:45.484Z,788.00
2019-03-23T06:24:46.409Z,788.00
2019-03-23T06:25:47.338Z,788.00
2019-03-23T06:26:48.214Z,790.00
2019-03-23T06:27:49.143Z,788.00
2019-03-23T06:28:49.151Z,790.00
2019-03-23T06:29:50.003Z,790.00
2019-03-23T06:30:50.934Z,788.00
2019-03-23T06:31:51.478Z,789.00
2019-03-23T06:32:51.521Z,789.00
2019-03-23T06:33:52.434Z,793.00
2019-03-23T06:34:52.515Z,793.00
2019-03-23T06:35:53.415Z,793.00
2019-03-23T06:36:53.479Z,792.00
2019-03-23T06:37:54.401Z,790.00
2019-03-23T06:39:05.051Z,790.00
2019-03-23T06:39:55.258Z,788.00
2019-03-23T06:40:56.279Z,792.00
2019-03-23T06:41:56.359Z,790.00
2019-03-23T06:42:59.890Z,788.00
2019-03-23T06:43:56.363Z,788.00
2019-03-23T06:44:58.198Z,788.00
2019-03-23T06:45:59.048Z,788.00
2019-03-23T06:46:59.928Z,788.00
2019-03-23T06:47:08.445Z,788.00
2019-03-23T06:48:09.529Z,788.00
2019-03-23T06:49:10.365Z,788.00
2019-03-23T06:50:10.544Z,787.00
2019-03-23T06:51:11.442Z,788.00
2019-03-23T06:52:12.226Z,788.00
2019-03-23T06:53:13.065Z,787.00
2019-03-23T06:54:13.050Z,786.00
2019-03-23T06:55:13.888Z,786.00
2019-03-23T06:56:14.574Z,785.00
2019-03-23T06:57:15.416Z,786.00
2019-03-23T06:58:15.639Z,785.00
2019-03-23T06:59:15.619Z,787.00
2019-03-23T07:00:15.627Z,787.00
2019-03-23T07:01:15.719Z,788.00
2019-03-23T07:02:16.649Z,787.00
2019-03-23T07:03:16.666Z,786.00
2019-03-23T07:04:17.675Z,785.00
2019-03-23T07:05:18.605Z,786.00
2019-03-23T07:06:19.506Z,788.00
2019-03-23T07:07:20.320Z,790.00
2019-03-23T07:08:31.313Z,790.00
2019-03-23T07:09:21.018Z,787.00
2019-03-23T07:10:22.750Z,786.00
2019-03-23T07:11:22.837Z,790.00
2019-03-23T07:12:21.931Z,788.00
2019-03-23T07:13:22.962Z,787.00
2019-03-23T07:14:23.188Z,787.00
2019-03-23T07:15:22.980Z,785.00
2019-03-23T07:16:24.999Z,786.00
2019-03-23T07:17:24.747Z,785.00
2019-03-23T07:18:26.648Z,784.00
2019-03-23T07:19:27.602Z,784.00
2019-03-23T07:20:28.524Z,784.00
2019-03-23T07:21:29.352Z,784.00
2019-03-23T07:22:29.369Z,784.00
2019-03-23T07:23:30.379Z,783.00
2019-03-23T07:24:30.368Z,785.00
2019-03-23T07:25:31.099Z,784.00
2019-03-23T07:26:31.260Z,783.00
2019-03-23T07:27:31.495Z,783.00
2019-03-23T07:28:32.480Z,783.00
2019-03-23T07:29:32.737Z,783.00
2019-03-23T07:30:33.714Z,783.00
2019-03-23T07:31:33.700Z,782.00
2019-03-23T07:32:33.940Z,782.00
2019-03-23T07:33:34.900Z,782.00
2019-03-23T07:34:35.921Z,782.00
2019-03-23T07:34:44.419Z,782.00
2019-03-23T07:35:46.359Z,782.00
2019-03-23T07:36:46.393Z,782.00
2019-03-23T07:37:45.400Z,782.00
2019-03-23T07:38:46.405Z,782.00
2019-03-23T07:39:46.535Z,782.00
2019-03-23T07:40:46.736Z,781.00
2019-03-23T07:41:46.778Z,781.00
2019-03-23T07:42:45.797Z,782.00
2019-03-23T07:43:47.728Z,782.00
2019-03-23T07:44:48.697Z,782.00
2019-03-23T07:45:48.685Z,782.00
2019-03-23T07:46:48.806Z,782.00
2019-03-23T07:47:48.549Z,781.00
2019-03-23T07:48:50.534Z,782.00
2019-03-23T07:49:51.429Z,782.00
2019-03-23T07:50:51.381Z,781.00
2019-03-23T07:51:52.308Z,784.00
2019-03-23T07:52:52.862Z,785.00
2019-03-23T07:53:53.685Z,784.00
2019-03-23T07:54:53.816Z,782.00
2019-03-23T07:55:54.666Z,781.00
2019-03-23T07:56:54.890Z,783.00
2019-03-23T07:57:55.760Z,782.00
2019-03-23T07:58:56.094Z,781.00
2019-03-23T07:59:56.144Z,781.00
2019-03-23T08:00:56.464Z,781.00
2019-03-23T08:01:56.527Z,782.00
2019-03-23T08:02:57.386Z,780.00
2019-03-23T08:03:58.341Z,781.00
2019-03-23T08:04:59.173Z,781.00
2019-03-23T08:05:59.418Z,780.00
2019-03-23T08:07:00.258Z,780.00
2019-03-23T08:08:01.198Z,780.00
2019-03-23T08:09:02.000Z,778.00
2019-03-23T08:10:02.445Z,780.00
2019-03-23T08:11:02.435Z,780.00
2019-03-23T08:12:03.208Z,780.00
2019-03-23T08:13:02.300Z,781.00
2019-03-23T08:14:04.188Z,780.00
2019-03-23T08:15:04.322Z,780.00
2019-03-23T08:16:05.324Z,780.00
2019-03-23T08:17:06.250Z,780.00
2019-03-23T08:18:06.396Z,777.00
2019-03-23T08:19:07.269Z,781.00
2019-03-23T08:20:08.086Z,781.00
2019-03-23T08:21:08.992Z,780.00
